CM224 SKRG-MPTO
Flight info
| Callsign | CM224 |
|---|---|
| Flight time | 0h 52m |
| Altitude | 35000 |
| Route | OPMEL3C OPMEL DCT SIGUN DCT ISOKO |
| Aircraft | B738/M-SDE2E3FGHIRWXY/LB1 |
Departure
| Time | 2026-04-25 02:09 |
|---|---|
| Airport | Jose Maria Córdova International Airport (SKRG) |
Arrival
| Time | 2026-04-25 03:01 |
|---|---|
| Airport | Tocumen International Airport (MPTO) |
| Time | Latitude | Longitude | Altitude | Speed | Heading |
|---|---|---|---|---|---|
| 2026-04-25 02:03 | 6.14817 | -75.42414 | 6975 ft | 0 kts | 83° |
| 2026-04-25 02:07 | 6.14817 | -75.42413 | 6947 ft | 1 kts | 83° |
| 2026-04-25 02:07 | 6.14832 | -75.42382 | 6973 ft | 7 kts | 45° |
| 2026-04-25 02:07 | 6.14887 | -75.42346 | 6976 ft | 12 kts | 29° |
| 2026-04-25 02:07 | 6.14971 | -75.42304 | 6978 ft | 15 kts | 13° |
| 2026-04-25 02:08 | 6.15123 | -75.42300 | 6982 ft | 45 kts | 0° |
| 2026-04-25 02:08 | 6.15677 | -75.42305 | 6989 ft | 114 kts | 359° |
| 2026-04-25 02:08 | 6.16682 | -75.42315 | 7016 ft | 172 kts | 359° |
| 2026-04-25 02:08 | 6.18002 | -75.42333 | 7462 ft | 199 kts | 358° |
| 2026-04-25 02:09 | 6.19414 | -75.42367 | 8338 ft | 206 kts | 359° |
| 2026-04-25 02:09 | 6.20811 | -75.42345 | 9155 ft | 206 kts | 360° |
| 2026-04-25 02:09 | 6.22320 | -75.42332 | 9384 ft | 229 kts | 359° |
| 2026-04-25 02:09 | 6.24002 | -75.42329 | 9581 ft | 253 kts | 359° |
| 2026-04-25 02:10 | 6.25824 | -75.42327 | 9950 ft | 268 kts | 359° |
| 2026-04-25 02:10 | 6.27712 | -75.42325 | 10523 ft | 273 kts | 359° |
| 2026-04-25 02:10 | 6.29627 | -75.42324 | 11126 ft | 277 kts | 359° |
| 2026-04-25 02:10 | 6.31603 | -75.42324 | 11387 ft | 300 kts | 359° |
| 2026-04-25 02:11 | 6.33788 | -75.42324 | 11576 ft | 326 kts | 359° |
| 2026-04-25 02:11 | 6.36145 | -75.42324 | 11815 ft | 347 kts | 359° |
| 2026-04-25 02:11 | 6.38564 | -75.42324 | 12344 ft | 355 kts | 359° |
| 2026-04-25 02:11 | 6.41034 | -75.42560 | 13018 ft | 358 kts | 343° |
| 2026-04-25 02:12 | 6.43249 | -75.43664 | 13707 ft | 357 kts | 322° |
| 2026-04-25 02:12 | 6.44948 | -75.45474 | 14369 ft | 358 kts | 302° |
| 2026-04-25 02:12 | 6.46219 | -75.47616 | 15003 ft | 361 kts | 299° |
| 2026-04-25 02:12 | 6.47459 | -75.49850 | 15563 ft | 366 kts | 298° |
| 2026-04-25 02:13 | 6.48718 | -75.52102 | 16155 ft | 370 kts | 299° |
| 2026-04-25 02:13 | 6.50006 | -75.54356 | 16748 ft | 373 kts | 300° |
| 2026-04-25 02:13 | 6.51300 | -75.56597 | 17335 ft | 376 kts | 300° |
| 2026-04-25 02:13 | 6.52626 | -75.58884 | 17903 ft | 379 kts | 300° |
| 2026-04-25 02:14 | 6.53962 | -75.61187 | 18481 ft | 383 kts | 300° |
| 2026-04-25 02:14 | 6.55312 | -75.63516 | 18962 ft | 386 kts | 300° |
| 2026-04-25 02:14 | 6.56673 | -75.65863 | 19445 ft | 389 kts | 300° |
| 2026-04-25 02:14 | 6.58023 | -75.68194 | 19913 ft | 392 kts | 300° |
| 2026-04-25 02:15 | 6.59404 | -75.70579 | 20389 ft | 395 kts | 300° |
| 2026-04-25 02:15 | 6.60791 | -75.72975 | 20843 ft | 397 kts | 300° |
| 2026-04-25 02:15 | 6.62195 | -75.75401 | 21303 ft | 400 kts | 300° |
| 2026-04-25 02:15 | 6.63588 | -75.77808 | 21742 ft | 403 kts | 300° |
| 2026-04-25 02:16 | 6.65011 | -75.80269 | 22174 ft | 406 kts | 300° |
| 2026-04-25 02:16 | 6.66438 | -75.82736 | 22617 ft | 409 kts | 300° |
| 2026-04-25 02:16 | 6.67876 | -75.85222 | 23052 ft | 412 kts | 300° |
| 2026-04-25 02:16 | 6.69308 | -75.87699 | 23151 ft | 414 kts | 300° |
| 2026-04-25 02:17 | 6.70763 | -75.90216 | 23157 ft | 414 kts | 301° |
| 2026-04-25 02:17 | 6.72213 | -75.92723 | 23159 ft | 414 kts | 301° |
| 2026-04-25 02:17 | 6.73640 | -75.95217 | 23151 ft | 415 kts | 298° |
| 2026-04-25 02:17 | 6.74800 | -75.97899 | 23274 ft | 421 kts | 291° |
| 2026-04-25 02:18 | 6.75779 | -76.00693 | 23721 ft | 422 kts | 289° |
| 2026-04-25 02:18 | 6.76703 | -76.03496 | 24148 ft | 422 kts | 289° |
| 2026-04-25 02:18 | 6.77612 | -76.06278 | 24489 ft | 424 kts | 289° |
| 2026-04-25 02:18 | 6.78549 | -76.09113 | 24801 ft | 427 kts | 289° |
| 2026-04-25 02:19 | 6.79504 | -76.11957 | 25095 ft | 430 kts | 289° |
| 2026-04-25 02:19 | 6.80478 | -76.14821 | 25412 ft | 432 kts | 289° |
| 2026-04-25 02:19 | 6.81464 | -76.17689 | 25757 ft | 434 kts | 289° |
| 2026-04-25 02:19 | 6.82460 | -76.20574 | 26076 ft | 437 kts | 289° |
| 2026-04-25 02:20 | 6.83449 | -76.23431 | 26381 ft | 439 kts | 289° |
| 2026-04-25 02:20 | 6.84458 | -76.26346 | 26675 ft | 442 kts | 289° |
| 2026-04-25 02:20 | 6.85474 | -76.29278 | 26956 ft | 445 kts | 289° |
| 2026-04-25 02:20 | 6.86497 | -76.32232 | 27230 ft | 447 kts | 289° |
| 2026-04-25 02:21 | 6.87527 | -76.35209 | 27534 ft | 450 kts | 289° |
| 2026-04-25 02:21 | 6.88551 | -76.38168 | 27807 ft | 452 kts | 288° |
| 2026-04-25 02:21 | 6.89590 | -76.41172 | 28086 ft | 454 kts | 288° |
| 2026-04-25 02:21 | 6.90634 | -76.44192 | 28360 ft | 457 kts | 288° |
| 2026-04-25 02:22 | 6.91672 | -76.47196 | 28633 ft | 459 kts | 288° |
| 2026-04-25 02:22 | 6.92723 | -76.50237 | 28896 ft | 461 kts | 288° |
| 2026-04-25 02:22 | 6.93770 | -76.53269 | 29159 ft | 463 kts | 288° |
| 2026-04-25 02:22 | 6.94834 | -76.56348 | 29404 ft | 466 kts | 288° |
| 2026-04-25 02:23 | 6.95901 | -76.59438 | 29641 ft | 468 kts | 288° |
| 2026-04-25 02:23 | 6.96975 | -76.62549 | 29896 ft | 470 kts | 288° |
| 2026-04-25 02:23 | 6.98037 | -76.65628 | 30194 ft | 470 kts | 288° |
| 2026-04-25 02:23 | 6.99113 | -76.68744 | 30487 ft | 470 kts | 288° |
| 2026-04-25 02:24 | 7.00190 | -76.71867 | 30766 ft | 470 kts | 288° |
| 2026-04-25 02:24 | 7.01265 | -76.74982 | 31034 ft | 471 kts | 288° |
| 2026-04-25 02:24 | 7.02329 | -76.78067 | 31300 ft | 472 kts | 287° |
| 2026-04-25 02:24 | 7.03408 | -76.81198 | 31574 ft | 472 kts | 287° |
| 2026-04-25 02:25 | 7.04487 | -76.84329 | 31858 ft | 473 kts | 287° |
| 2026-04-25 02:25 | 7.05569 | -76.87470 | 32140 ft | 473 kts | 287° |
| 2026-04-25 02:25 | 7.06651 | -76.90610 | 32411 ft | 474 kts | 287° |
| 2026-04-25 02:25 | 7.07718 | -76.93707 | 32689 ft | 474 kts | 287° |
| 2026-04-25 02:26 | 7.08802 | -76.96855 | 32985 ft | 474 kts | 287° |
| 2026-04-25 02:26 | 7.09883 | -76.99996 | 33275 ft | 475 kts | 287° |
| 2026-04-25 02:26 | 7.10969 | -77.03152 | 33560 ft | 475 kts | 287° |
| 2026-04-25 02:26 | 7.12053 | -77.06302 | 33842 ft | 476 kts | 287° |
| 2026-04-25 02:27 | 7.13127 | -77.09423 | 34101 ft | 476 kts | 287° |
| 2026-04-25 02:27 | 7.14212 | -77.12577 | 34437 ft | 473 kts | 287° |
| 2026-04-25 02:27 | 7.15286 | -77.15698 | 34847 ft | 470 kts | 287° |
| 2026-04-25 02:28 | 7.17066 | -77.20877 | 34943 ft | 470 kts | 287° |
| 2026-04-25 02:28 | 7.17773 | -77.22935 | 34949 ft | 469 kts | 287° |
| 2026-04-25 02:29 | 7.23800 | -77.40491 | 34961 ft | 466 kts | 287° |
| 2026-04-25 02:30 | 7.25920 | -77.46670 | 34961 ft | 465 kts | 287° |
| 2026-04-25 02:30 | 7.28032 | -77.52832 | 34969 ft | 465 kts | 287° |
| 2026-04-25 02:31 | 7.30134 | -77.58967 | 34967 ft | 465 kts | 287° |
| 2026-04-25 02:31 | 7.32252 | -77.65152 | 34971 ft | 465 kts | 287° |
| 2026-04-25 02:32 | 7.34350 | -77.71281 | 34970 ft | 465 kts | 287° |
| 2026-04-25 02:32 | 7.36452 | -77.77424 | 34979 ft | 466 kts | 287° |
| 2026-04-25 02:33 | 7.38821 | -77.83526 | 34743 ft | 471 kts | 296° |
| 2026-04-25 02:33 | 7.40574 | -77.86333 | 34286 ft | 472 kts | 306° |
| 2026-04-25 02:33 | 7.42657 | -77.88830 | 33831 ft | 470 kts | 310° |
| 2026-04-25 02:33 | 7.44817 | -77.91289 | 33342 ft | 467 kts | 310° |
| 2026-04-25 02:34 | 7.46982 | -77.93728 | 32893 ft | 463 kts | 310° |
| 2026-04-25 02:34 | 7.49126 | -77.96151 | 32445 ft | 459 kts | 310° |
| 2026-04-25 02:34 | 7.51223 | -77.98542 | 32007 ft | 452 kts | 310° |
| 2026-04-25 02:34 | 7.53254 | -78.00874 | 31589 ft | 445 kts | 310° |
| 2026-04-25 02:35 | 7.55282 | -78.03217 | 31183 ft | 438 kts | 310° |
| 2026-04-25 02:35 | 7.57269 | -78.05521 | 30766 ft | 431 kts | 310° |
| 2026-04-25 02:35 | 7.59224 | -78.07792 | 30370 ft | 425 kts | 310° |
| 2026-04-25 02:35 | 7.61129 | -78.10005 | 29972 ft | 420 kts | 310° |
| 2026-04-25 02:36 | 7.63030 | -78.12215 | 29509 ft | 414 kts | 310° |
| 2026-04-25 02:36 | 7.64906 | -78.14395 | 29073 ft | 407 kts | 310° |
| 2026-04-25 02:36 | 7.66749 | -78.16537 | 28671 ft | 400 kts | 310° |
| 2026-04-25 02:36 | 7.68548 | -78.18626 | 28266 ft | 394 kts | 310° |
| 2026-04-25 02:37 | 7.70338 | -78.20706 | 27870 ft | 388 kts | 310° |
| 2026-04-25 02:37 | 7.72108 | -78.22764 | 27479 ft | 383 kts | 310° |
| 2026-04-25 02:37 | 7.73826 | -78.24761 | 27113 ft | 381 kts | 310° |
| 2026-04-25 02:37 | 7.75561 | -78.26776 | 26730 ft | 379 kts | 310° |
| 2026-04-25 02:38 | 7.77291 | -78.28788 | 26359 ft | 377 kts | 310° |
| 2026-04-25 02:38 | 7.79010 | -78.30787 | 25981 ft | 375 kts | 310° |
| 2026-04-25 02:38 | 7.80695 | -78.32747 | 25609 ft | 373 kts | 310° |
| 2026-04-25 02:38 | 7.82400 | -78.34730 | 25236 ft | 371 kts | 310° |
| 2026-04-25 02:39 | 7.84094 | -78.36700 | 24860 ft | 369 kts | 311° |
| 2026-04-25 02:39 | 7.85778 | -78.38660 | 24489 ft | 367 kts | 311° |
| 2026-04-25 02:39 | 7.87429 | -78.40581 | 24122 ft | 366 kts | 311° |
| 2026-04-25 02:39 | 7.89098 | -78.42523 | 23744 ft | 365 kts | 311° |
| 2026-04-25 02:40 | 7.90763 | -78.44460 | 23334 ft | 364 kts | 311° |
| 2026-04-25 02:40 | 7.92416 | -78.46384 | 22915 ft | 362 kts | 311° |
| 2026-04-25 02:40 | 7.94061 | -78.48298 | 22518 ft | 359 kts | 311° |
| 2026-04-25 02:40 | 7.95694 | -78.50199 | 22145 ft | 357 kts | 311° |
| 2026-04-25 02:41 | 7.97292 | -78.52061 | 21777 ft | 354 kts | 311° |
| 2026-04-25 02:41 | 7.98899 | -78.53931 | 21410 ft | 351 kts | 310° |
| 2026-04-25 02:41 | 8.00497 | -78.55793 | 21056 ft | 349 kts | 310° |
| 2026-04-25 02:41 | 8.02084 | -78.57641 | 20705 ft | 346 kts | 310° |
| 2026-04-25 02:42 | 8.03663 | -78.59481 | 20338 ft | 344 kts | 310° |
| 2026-04-25 02:42 | 8.05231 | -78.61308 | 19983 ft | 342 kts | 310° |
| 2026-04-25 02:42 | 8.06767 | -78.63097 | 19637 ft | 341 kts | 310° |
| 2026-04-25 02:42 | 8.08322 | -78.64910 | 19280 ft | 339 kts | 310° |
| 2026-04-25 02:43 | 8.09347 | -78.66105 | 19050 ft | 338 kts | 310° |
| 2026-04-25 02:43 | 8.11391 | -78.68487 | 18587 ft | 336 kts | 310° |
| 2026-04-25 02:43 | 8.12405 | -78.69670 | 18355 ft | 335 kts | 310° |
| 2026-04-25 02:43 | 8.13934 | -78.71453 | 17960 ft | 334 kts | 310° |
| 2026-04-25 02:44 | 8.15952 | -78.73807 | 17456 ft | 332 kts | 310° |
| 2026-04-25 02:44 | 8.17455 | -78.75560 | 17097 ft | 330 kts | 310° |
| 2026-04-25 02:44 | 8.18472 | -78.76747 | 16855 ft | 328 kts | 310° |
| 2026-04-25 02:44 | 8.19938 | -78.78457 | 16586 ft | 324 kts | 310° |
| 2026-04-25 02:45 | 8.21887 | -78.80731 | 16137 ft | 321 kts | 310° |
| 2026-04-25 02:45 | 8.22873 | -78.81881 | 15909 ft | 319 kts | 310° |
| 2026-04-25 02:45 | 8.24374 | -78.83531 | 15633 ft | 318 kts | 314° |
| 2026-04-25 02:45 | 8.25933 | -78.85079 | 15402 ft | 318 kts | 315° |
| 2026-04-25 02:46 | 8.27553 | -78.86640 | 15174 ft | 323 kts | 315° |
| 2026-04-25 02:46 | 8.29194 | -78.88215 | 14933 ft | 325 kts | 315° |
| 2026-04-25 02:46 | 8.30830 | -78.89788 | 14650 ft | 323 kts | 315° |
| 2026-04-25 02:46 | 8.32452 | -78.91355 | 14305 ft | 321 kts | 315° |
| 2026-04-25 02:47 | 8.33525 | -78.92394 | 14091 ft | 320 kts | 315° |
| 2026-04-25 02:47 | 8.35111 | -78.93934 | 13747 ft | 320 kts | 315° |
| 2026-04-25 02:48 | 8.40419 | -78.99106 | 12501 ft | 316 kts | 315° |
| 2026-04-25 02:48 | 8.41997 | -79.00647 | 12147 ft | 314 kts | 315° |
| 2026-04-25 02:48 | 8.43566 | -79.02180 | 11799 ft | 312 kts | 315° |
| 2026-04-25 02:48 | 8.45113 | -79.03690 | 11449 ft | 311 kts | 315° |
| 2026-04-25 02:49 | 8.46667 | -79.05209 | 11106 ft | 310 kts | 315° |
| 2026-04-25 02:49 | 8.48220 | -79.06727 | 10757 ft | 309 kts | 315° |
| 2026-04-25 02:49 | 8.49742 | -79.08214 | 10423 ft | 307 kts | 315° |
| 2026-04-25 02:49 | 8.50773 | -79.09221 | 10319 ft | 302 kts | 315° |
| 2026-04-25 02:50 | 8.52745 | -79.11148 | 10119 ft | 292 kts | 315° |
| 2026-04-25 02:50 | 8.54192 | -79.12563 | 9925 ft | 286 kts | 315° |
| 2026-04-25 02:50 | 8.55608 | -79.13947 | 9624 ft | 286 kts | 315° |
| 2026-04-25 02:50 | 8.57038 | -79.15346 | 9314 ft | 284 kts | 315° |
| 2026-04-25 02:51 | 8.58457 | -79.16734 | 9011 ft | 283 kts | 315° |
| 2026-04-25 02:51 | 8.59867 | -79.18114 | 8714 ft | 282 kts | 315° |
| 2026-04-25 02:51 | 8.60343 | -79.18579 | 8613 ft | 281 kts | 315° |
| 2026-04-25 02:51 | 8.60799 | -79.19025 | 8511 ft | 281 kts | 315° |
| 2026-04-25 02:52 | 8.64075 | -79.22231 | 7823 ft | 279 kts | 315° |
| 2026-04-25 02:52 | 8.65451 | -79.23578 | 7529 ft | 278 kts | 315° |
| 2026-04-25 02:52 | 8.66839 | -79.24936 | 7223 ft | 277 kts | 315° |
| 2026-04-25 02:52 | 8.68226 | -79.26293 | 6945 ft | 275 kts | 315° |
| 2026-04-25 02:53 | 8.69571 | -79.27610 | 6651 ft | 270 kts | 315° |
| 2026-04-25 02:53 | 8.70915 | -79.28926 | 6361 ft | 266 kts | 315° |
| 2026-04-25 02:53 | 8.72246 | -79.30229 | 6070 ft | 265 kts | 315° |
| 2026-04-25 02:53 | 8.73572 | -79.31528 | 5771 ft | 265 kts | 315° |
| 2026-04-25 02:54 | 8.74882 | -79.32812 | 5479 ft | 264 kts | 315° |
| 2026-04-25 02:54 | 8.76204 | -79.34106 | 5204 ft | 264 kts | 315° |
| 2026-04-25 02:54 | 8.77526 | -79.35401 | 4926 ft | 263 kts | 315° |
| 2026-04-25 02:54 | 8.78825 | -79.36674 | 4653 ft | 262 kts | 315° |
| 2026-04-25 02:55 | 8.80136 | -79.37959 | 4355 ft | 262 kts | 315° |
| 2026-04-25 02:55 | 8.81451 | -79.39247 | 4072 ft | 261 kts | 315° |
| 2026-04-25 02:55 | 8.82754 | -79.40525 | 3874 ft | 257 kts | 315° |
| 2026-04-25 02:55 | 8.83330 | -79.41089 | 3817 ft | 254 kts | 315° |
| 2026-04-25 02:56 | 8.83655 | -79.41407 | 3784 ft | 252 kts | 315° |
| 2026-04-25 02:56 | 8.84904 | -79.42631 | 3658 ft | 245 kts | 315° |
| 2026-04-25 02:56 | 8.86112 | -79.43815 | 3542 ft | 238 kts | 315° |
| 2026-04-25 02:56 | 8.87271 | -79.44951 | 3430 ft | 230 kts | 315° |
| 2026-04-25 02:57 | 8.88406 | -79.46064 | 3325 ft | 224 kts | 315° |
| 2026-04-25 02:57 | 8.89652 | -79.46999 | 3067 ft | 223 kts | 341° |
| 2026-04-25 02:57 | 8.91136 | -79.47034 | 2903 ft | 215 kts | 20° |
| 2026-04-25 02:57 | 8.92451 | -79.46385 | 2681 ft | 206 kts | 30° |
| 2026-04-25 02:58 | 8.93664 | -79.45663 | 2462 ft | 198 kts | 31° |
| 2026-04-25 02:58 | 8.94836 | -79.44957 | 2241 ft | 193 kts | 31° |
| 2026-04-25 02:58 | 8.95987 | -79.44287 | 1976 ft | 189 kts | 30° |
| 2026-04-25 02:58 | 8.97114 | -79.43642 | 1737 ft | 181 kts | 30° |
| 2026-04-25 02:59 | 8.98200 | -79.43022 | 1577 ft | 179 kts | 30° |
| 2026-04-25 02:59 | 8.99288 | -79.42409 | 1286 ft | 181 kts | 30° |
| 2026-04-25 02:59 | 9.00361 | -79.41796 | 1023 ft | 171 kts | 30° |
| 2026-04-25 02:59 | 9.01360 | -79.41221 | 805 ft | 159 kts | 30° |
| 2026-04-25 03:00 | 9.02284 | -79.40690 | 609 ft | 148 kts | 30° |
| 2026-04-25 03:00 | 9.03182 | -79.40172 | 458 ft | 153 kts | 30° |
| 2026-04-25 03:00 | 9.04113 | -79.39638 | 211 ft | 154 kts | 30° |
| 2026-04-25 03:00 | 9.05028 | -79.39108 | 46 ft | 147 kts | 28° |
| 2026-04-25 03:01 | 9.05753 | -79.38697 | 44 ft | 88 kts | 29° |
| 2026-04-25 03:01 | 9.06167 | -79.38462 | 44 ft | 43 kts | 29° |
| 2026-04-25 03:01 | 9.06303 | -79.38392 | 43 ft | 21 kts | 13° |
| 2026-04-25 03:01 | 9.06455 | -79.38389 | 42 ft | 23 kts | 360° |
| 2026-04-25 03:02 | 9.06591 | -79.38391 | 43 ft | 12 kts | 356° |
| 2026-04-25 03:02 | 9.06659 | -79.38433 | 45 ft | 12 kts | 331° |
| 2026-04-25 03:02 | 9.06735 | -79.38426 | 46 ft | 6 kts | 22° |
| 2026-04-25 03:02 | 9.06760 | -79.38436 | 47 ft | 4 kts | 313° |
| 2026-04-25 03:03 | 9.06788 | -79.38473 | 49 ft | 0 kts | 307° |